Time;durP1;ratioP1;P1;durP2;ratioP2;P2;SDS_P1;SDS_P2;PMS_P1;PMS_P2;Temp;Humidity;BMP_temperature;BMP_pressure;BME280_temperature;BME280_humidity;BME280_pressure;Samples;Min_cycle;Max_cycle;Signal;HPM_P1;HPM_P2
2024/04/14 00:00:47;;;;;;;4.70;2.20;;;;;;;15.06;100.00;97887.91;6744155;21;20909;-81
2024/04/14 00:03:13;;;;;;;2.63;1.90;;;;;;;15.10;100.00;97883.66;6744767;21;20705;-80
2024/04/14 00:05:40;;;;;;;5.03;1.70;;;;;;;15.06;100.00;97884.44;6745133;21;20331;-78
2024/04/14 00:08:06;;;;;;;4.65;2.15;;;;;;;15.02;100.00;97881.50;6744694;21;20382;-82
2024/04/14 00:10:35;;;;;;;6.28;2.00;;;;;;;14.98;100.00;97885.75;6745261;21;20334;-81
2024/04/14 00:13:01;;;;;;;2.40;1.80;;;;;;;14.96;100.00;97873.78;6744713;21;20327;-78
2024/04/14 00:15:27;;;;;;;3.10;1.77;;;;;;;14.97;100.00;97872.69;6744626;21;20437;-81
2024/04/14 00:17:53;;;;;;;4.43;1.90;;;;;;;14.99;100.00;97871.38;6745202;21;20318;-81
2024/04/14 00:20:22;;;;;;;3.70;1.77;;;;;;;15.02;100.00;97872.72;6744012;21;20326;-81
2024/04/14 00:22:50;;;;;;;3.55;1.80;;;;;;;15.00;100.00;97874.84;6743764;21;21335;-81
2024/04/14 00:25:16;;;;;;;2.72;1.48;;;;;;;15.00;100.00;97864.97;6744366;21;20409;-81
2024/04/14 00:27:45;;;;;;;2.80;1.60;;;;;;;15.01;100.00;97861.25;6744032;21;20367;-82
2024/04/14 00:30:11;;;;;;;3.53;1.77;;;;;;;14.95;100.00;97857.00;6747318;21;20327;-81
2024/04/14 00:32:38;;;;;;;3.88;1.60;;;;;;;14.92;100.00;97857.50;6745128;21;20358;-81
2024/04/14 00:35:04;;;;;;;3.30;1.80;;;;;;;14.90;100.00;97853.50;6745031;21;20326;-82
2024/04/14 00:37:30;;;;;;;5.43;2.10;;;;;;;14.85;100.00;97851.66;6745374;21;20330;-81
2024/04/14 00:39:57;;;;;;;2.97;2.10;;;;;;;14.83;100.00;97858.31;6746241;21;20327;-82
2024/04/14 00:42:23;;;;;;;2.65;1.80;;;;;;;14.82;100.00;97859.38;6745818;21;20394;-82
2024/04/14 00:44:52;;;;;;;3.95;1.80;;;;;;;14.82;100.00;97857.50;6745497;21;20338;-81
2024/04/14 00:47:18;;;;;;;5.50;2.08;;;;;;;14.82;100.00;97857.50;6748415;21;20366;-80
2024/04/14 00:49:44;;;;;;;2.63;1.65;;;;;;;14.84;100.00;97855.38;6745213;21;20318;-80
2024/04/14 00:52:11;;;;;;;2.50;1.50;;;;;;;14.82;100.00;97854.03;6744662;21;20322;-80
2024/04/14 00:54:37;;;;;;;2.78;1.63;;;;;;;14.84;100.00;97849.25;6743694;21;20349;-81
2024/04/14 00:57:04;;;;;;;2.63;1.70;;;;;;;14.81;100.00;97845.25;6744367;21;20613;-80
2024/04/14 00:59:32;;;;;;;2.78;1.75;;;;;;;14.88;100.00;97850.31;6744210;21;20318;-80
2024/04/14 01:02:00;;;;;;;2.58;1.60;;;;;;;14.87;100.00;97851.38;6744785;21;20669;-81
2024/04/14 01:04:26;;;;;;;3.53;1.60;;;;;;;14.88;100.00;97845.78;6746001;21;20314;-80
2024/04/14 01:06:53;;;;;;;2.53;1.50;;;;;;;14.87;100.00;97843.38;6749539;21;20326;-80
2024/04/14 01:09:19;;;;;;;4.63;2.10;;;;;;;14.95;100.00;97842.84;6746432;21;20804;-80
2024/04/14 01:11:45;;;;;;;2.22;1.52;;;;;;;14.95;100.00;97849.00;6746740;21;20332;-81
2024/04/14 01:14:11;;;;;;;3.13;1.80;;;;;;;14.94;100.00;97841.25;6747846;21;20331;-81
2024/04/14 01:16:38;;;;;;;5.13;1.70;;;;;;;15.00;100.00;97837.50;6746024;21;20679;-80
2024/04/14 01:19:07;;;;;;;5.25;1.95;;;;;;;15.00;100.00;97846.31;6746612;21;20847;-81
2024/04/14 01:21:33;;;;;;;4.70;1.55;;;;;;;15.02;100.00;97846.84;6746050;21;20772;-80
2024/04/14 01:23:59;;;;;;;5.03;1.90;;;;;;;15.01;100.00;97847.91;6746992;21;20420;-79
2024/04/14 01:26:28;;;;;;;3.10;1.70;;;;;;;15.03;100.00;97845.00;6746037;21;21047;-80
2024/04/14 01:28:54;;;;;;;2.38;1.50;;;;;;;15.00;100.00;97843.66;6747028;21;20380;-80
2024/04/14 01:31:20;;;;;;;4.82;1.90;;;;;;;15.02;100.00;97841.53;6747089;21;20330;-80
2024/04/14 01:33:47;;;;;;;6.60;1.70;;;;;;;15.05;100.00;97842.84;6746015;21;20330;-80
2024/04/14 01:36:13;;;;;;;2.17;1.65;;;;;;;15.00;100.00;97834.84;6745315;21;20433;-81
2024/04/14 01:38:39;;;;;;;2.53;1.60;;;;;;;14.96;100.00;97844.47;6746925;21;20338;-80
2024/04/14 01:41:05;;;;;;;5.32;1.90;;;;;;;14.96;100.00;97836.47;6746810;21;20331;-80
2024/04/14 01:43:34;;;;;;;3.40;1.50;;;;;;;14.95;100.00;97841.00;6745873;21;20335;-80
2024/04/14 01:46:00;;;;;;;8.37;1.87;;;;;;;14.97;100.00;97840.69;6745697;21;20371;-79
2024/04/14 01:48:27;;;;;;;4.05;1.80;;;;;;;14.91;100.00;97841.78;6745005;21;20330;-80
2024/04/14 01:50:53;;;;;;;2.13;1.85;;;;;;;14.98;100.00;97831.63;6745715;21;20363;-81
2024/04/14 01:53:19;;;;;;;6.70;2.20;;;;;;;14.94;100.00;97839.38;6745852;21;20369;-80
2024/04/14 01:55:47;;;;;;;5.32;1.60;;;;;;;14.94;100.00;97833.25;6746112;21;20427;-80
2024/04/14 01:58:13;;;;;;;2.45;1.75;;;;;;;14.91;100.00;97833.78;6748199;21;20323;-80
2024/04/14 02:00:42;;;;;;;2.25;1.45;;;;;;;14.89;100.00;97841.25;6749806;21;20322;-80
2024/04/14 02:03:08;;;;;;;4.20;1.58;;;;;;;14.90;100.00;97842.84;6746545;21;20547;-80
2024/04/14 02:05:34;;;;;;;3.83;1.80;;;;;;;14.86;100.00;97836.47;6744963;21;20362;-79
2024/04/14 02:08:00;;;;;;;2.50;1.45;;;;;;;14.87;100.00;97836.19;6745026;21;20335;-78
2024/04/14 02:10:27;;;;;;;2.88;1.70;;;;;;;14.81;100.00;97831.91;6745347;21;20335;-80
2024/04/14 02:12:53;;;;;;;4.97;2.03;;;;;;;14.80;100.00;97837.53;6745175;21;20370;-81
2024/04/14 02:15:19;;;;;;;5.63;1.80;;;;;;;14.77;100.00;97830.84;6744623;21;20354;-80
2024/04/14 02:17:49;;;;;;;2.85;1.67;;;;;;;14.73;100.00;97837.00;6744363;21;20327;-80
2024/04/14 02:20:16;;;;;;;3.47;1.60;;;;;;;14.69;100.00;97834.06;6745100;21;20375;-81
2024/04/14 02:22:42;;;;;;;2.35;1.60;;;;;;;14.70;100.00;97828.47;6745241;21;20375;-80
2024/04/14 02:25:08;;;;;;;5.00;1.70;;;;;;;14.70;100.00;97833.00;6745198;21;20467;-80
2024/04/14 02:27:35;;;;;;;4.60;2.03;;;;;;;14.67;100.00;97831.66;6744870;21;20322;-80
2024/04/14 02:30:01;;;;;;;2.65;1.60;;;;;;;14.63;100.00;97822.59;6744687;21;20358;-80
2024/04/14 02:32:27;;;;;;;3.05;1.67;;;;;;;14.62;100.00;97828.19;6744425;21;20322;-81
2024/04/14 02:34:56;;;;;;;2.85;1.55;;;;;;;14.62;100.00;97825.53;6745447;21;20653;-81
2024/04/14 02:37:22;;;;;;;1.92;1.50;;;;;;;14.59;100.00;97821.50;6746349;21;20362;-81
2024/04/14 02:39:48;;;;;;;2.95;1.90;;;;;;;14.57;100.00;97823.66;6744983;21;20326;-80
2024/04/14 02:42:15;;;;;;;2.00;1.53;;;;;;;14.54;100.00;97823.38;6745162;21;20322;-81
2024/04/14 02:44:41;;;;;;;2.20;1.63;;;;;;;14.52;100.00;97820.97;6744297;21;20370;-80
2024/04/14 02:47:07;;;;;;;2.65;1.38;;;;;;;14.50;100.00;97831.13;6744437;21;20402;-81
2024/04/14 02:49:33;;;;;;;3.30;1.60;;;;;;;14.41;100.00;97823.91;6746554;21;20326;-81
2024/04/14 02:52:02;;;;;;;3.83;1.70;;;;;;;14.38;100.00;97829.72;6746100;21;20330;-81
2024/04/14 02:54:28;;;;;;;2.92;1.70;;;;;;;14.34;100.00;97814.28;6745650;21;20322;-81
2024/04/14 02:56:54;;;;;;;2.75;1.70;;;;;;;14.32;100.00;97820.94;6746280;21;20327;-81
2024/04/14 02:59:20;;;;;;;4.55;1.85;;;;;;;14.25;100.00;97823.06;6746165;21;20356;-80
2024/04/14 03:01:47;;;;;;;4.93;1.65;;;;;;;14.29;100.00;97816.94;6748962;21;20330;-80
2024/04/14 03:04:13;;;;;;;3.72;1.80;;;;;;;14.24;100.00;97818.78;6744415;21;20330;-80
2024/04/14 03:06:39;;;;;;;4.55;1.85;;;;;;;14.26;100.00;97811.34;6744864;21;20331;-80
2024/04/14 03:09:08;;;;;;;4.07;1.75;;;;;;;14.18;100.00;97814.53;6744504;21;20323;-79
2024/04/14 03:11:34;;;;;;;2.97;1.63;;;;;;;14.26;100.00;97820.13;6744349;21;20323;-78
2024/04/14 03:14:00;;;;;;;3.53;1.80;;;;;;;14.25;100.00;97815.06;6744984;21;20326;-80
2024/04/14 03:16:26;;;;;;;2.88;1.80;;;;;;;14.23;100.00;97817.19;6744285;21;20353;-79
2024/04/14 03:18:52;;;;;;;3.20;1.92;;;;;;;14.23;100.00;97819.84;6745299;21;20370;-81
2024/04/14 03:21:18;;;;;;;2.70;1.67;;;;;;;14.11;100.00;97825.44;6745375;21;20366;-81
2024/04/14 03:23:45;;;;;;;2.17;1.60;;;;;;;14.14;100.00;97821.41;6744791;21;20373;-79
2024/04/14 03:26:13;;;;;;;3.85;1.83;;;;;;;14.04;100.00;97819.56;6744240;21;20326;-81
2024/04/14 03:28:40;;;;;;;2.60;1.92;;;;;;;14.07;100.00;97815.53;6744191;21;20322;-80
2024/04/14 03:31:06;;;;;;;3.28;1.95;;;;;;;14.03;100.00;97817.16;6744292;21;20798;-80
2024/04/14 03:33:32;;;;;;;3.45;1.90;;;;;;;13.94;100.00;97824.84;6744024;21;20644;-80
2024/04/14 03:36:00;;;;;;;3.60;1.92;;;;;;;13.95;100.00;97821.13;6744176;21;20330;-80
2024/04/14 03:38:26;;;;;;;4.10;1.90;;;;;;;13.93;100.00;97829.34;6743815;21;20736;-81
2024/04/14 03:40:52;;;;;;;1.90;1.65;;;;;;;13.97;100.00;97820.88;6744337;21;20796;-80
2024/04/14 03:43:21;;;;;;;4.72;1.90;;;;;;;13.94;100.00;97815.00;6744227;21;20338;-80
2024/04/14 03:45:48;;;;;;;3.63;1.85;;;;;;;13.90;100.00;97813.94;6743314;21;20342;-80
2024/04/14 03:48:14;;;;;;;3.40;2.03;;;;;;;13.85;100.00;97811.22;6746866;21;20731;-81
2024/04/14 03:50:40;;;;;;;4.20;1.90;;;;;;;13.85;100.00;97815.75;6743964;21;20326;-82
2024/04/14 03:53:06;;;;;;;2.75;2.05;;;;;;;13.80;100.00;97821.06;6744266;21;20357;-81
2024/04/14 03:55:33;;;;;;;2.40;1.60;;;;;;;13.85;100.00;97808.56;6743607;21;20319;-80
2024/04/14 03:57:59;;;;;;;5.90;2.83;;;;;;;13.80;100.00;97813.09;6743599;21;20346;-81
2024/04/14 04:00:28;;;;;;;2.72;1.90;;;;;;;13.75;100.00;97813.88;6752309;21;20318;-80
2024/04/14 04:02:54;;;;;;;4.32;1.77;;;;;;;13.74;100.00;97814.13;6744461;21;20359;-80
2024/04/14 04:05:20;;;;;;;3.00;2.20;;;;;;;13.66;100.00;97815.44;6744398;21;20330;-80
2024/04/14 04:07:48;;;;;;;3.80;2.03;;;;;;;13.67;100.00;97817.03;6744395;21;20406;-80
2024/04/14 04:10:14;;;;;;;2.70;1.77;;;;;;;13.61;100.00;97823.38;6744660;21;20370;-80
2024/04/14 04:12:41;;;;;;;3.08;1.83;;;;;;;13.68;100.00;97817.84;6744929;21;20322;-80
2024/04/14 04:15:08;;;;;;;3.50;1.92;;;;;;;13.61;100.00;97818.03;6744630;21;20330;-81
2024/04/14 04:17:36;;;;;;;2.70;2.00;;;;;;;13.59;100.00;97822.84;6744966;21;20342;-79
2024/04/14 04:20:04;;;;;;;2.65;1.80;;;;;;;13.54;100.00;97830.78;6744652;21;20397;-80
2024/04/14 04:22:30;;;;;;;5.70;2.03;;;;;;;13.61;100.00;97827.91;6744890;21;20421;-80
2024/04/14 04:24:56;;;;;;;4.63;1.75;;;;;;;13.50;100.00;97825.19;6744499;21;20361;-80
2024/04/14 04:27:22;;;;;;;3.83;2.05;;;;;;;13.53;100.00;97819.34;6744215;21;20783;-80
2024/04/14 04:29:48;;;;;;;6.82;2.13;;;;;;;13.49;100.00;97822.78;6744267;21;20862;-80
2024/04/14 04:32:17;;;;;;;3.00;1.85;;;;;;;13.47;100.00;97824.91;6744679;21;20359;-80
2024/04/14 04:34:46;;;;;;;3.10;1.88;;;;;;;13.48;100.00;97818.53;6744883;21;20374;-80
2024/04/14 04:37:14;;;;;;;4.75;1.85;;;;;;;13.47;100.00;97823.03;6745213;21;20334;-80
2024/04/14 04:39:40;;;;;;;7.68;2.33;;;;;;;13.49;100.00;97825.44;6746856;21;20396;-80
2024/04/14 04:42:07;;;;;;;2.80;1.80;;;;;;;13.44;100.00;97826.25;6747164;21;20331;-80
2024/04/14 04:44:33;;;;;;;2.57;1.63;;;;;;;13.45;100.00;97821.72;6747231;21;20349;-81
2024/04/14 04:46:59;;;;;;;3.03;1.83;;;;;;;13.37;100.00;97823.00;6746405;21;20368;-80
2024/04/14 04:49:25;;;;;;;2.72;1.80;;;;;;;13.33;100.00;97824.56;6747351;21;20322;-81
2024/04/14 04:51:54;;;;;;;3.40;1.83;;;;;;;13.30;100.00;97830.41;6747215;21;20335;-80
2024/04/14 04:54:20;;;;;;;3.03;1.90;;;;;;;13.24;100.00;97836.75;6747363;21;20318;-81
2024/04/14 04:56:47;;;;;;;2.63;1.60;;;;;;;13.17;100.00;97831.66;6747385;21;20334;-81
2024/04/14 04:59:13;;;;;;;2.90;2.00;;;;;;;13.15;100.00;97825.00;6747530;21;20326;-81
2024/04/14 05:01:39;;;;;;;2.92;1.90;;;;;;;13.14;100.00;97829.53;6747729;21;20334;-79
2024/04/14 05:04:05;;;;;;;4.17;2.00;;;;;;;13.11;100.00;97832.66;6748176;21;20322;-81
2024/04/14 05:06:32;;;;;;;3.88;1.83;;;;;;;13.10;100.00;97832.91;6747516;21;20326;-81
2024/04/14 05:09:00;;;;;;;2.33;1.80;;;;;;;13.10;100.00;97838.22;6747908;21;20638;-81
2024/04/14 05:11:26;;;;;;;2.38;1.80;;;;;;;13.09;100.00;97826.78;6749150;21;20367;-80
2024/04/14 05:13:53;;;;;;;2.60;1.80;;;;;;;13.19;100.00;97828.75;6747868;21;20327;-81
2024/04/14 05:16:20;;;;;;;3.15;1.90;;;;;;;13.27;100.00;97835.44;6750862;21;20629;-81
2024/04/14 05:18:46;;;;;;;3.22;1.75;;;;;;;13.27;100.00;97828.25;6747250;21;20330;-81
2024/04/14 05:21:12;;;;;;;2.97;1.83;;;;;;;13.30;100.00;97837.59;6746882;21;20330;-81
2024/04/14 05:23:38;;;;;;;2.10;1.70;;;;;;;13.30;100.00;97843.72;6748857;21;20359;-80
2024/04/14 05:26:07;;;;;;;1.83;1.60;;;;;;;13.31;100.00;97842.63;6747114;21;20353;-81
2024/04/14 05:29:02;;;;;;;2.27;1.80;;;;;;;13.33;100.00;97845.84;6749532;21;20476;-82
2024/04/14 05:31:33;;;;;;;3.47;1.83;;;;;;;13.37;100.00;97849.59;6702685;21;20326;-80
2024/04/14 05:34:05;;;;;;;3.17;1.85;;;;;;;13.41;100.00;97848.00;6749317;21;20314;-82
2024/04/14 05:36:42;;;;;;;2.45;2.05;;;;;;;13.50;100.00;97857.13;6737468;21;20374;-81
2024/04/14 05:39:37;;;;;;;2.00;1.50;;;;;;;13.60;100.00;97860.88;6675136;21;20326;-82
2024/04/14 05:42:29;;;;;;;2.13;1.40;;;;;;;13.69;100.00;97862.78;6651208;21;20326;-81
2024/04/14 05:45:00;;;;;;;1.60;1.38;;;;;;;13.76;100.00;97866.00;6743581;21;20465;-80
2024/04/14 05:47:40;;;;;;;2.85;1.40;;;;;;;13.85;100.00;97866.31;6749791;21;20411;-82
2024/04/14 05:50:18;;;;;;;1.88;1.60;;;;;;;13.92;100.00;97866.88;6750256;21;20382;-81
2024/04/14 05:53:11;;;;;;;2.70;1.77;;;;;;;14.00;100.00;97858.38;6751196;21;20373;-82
2024/04/14 05:55:38;;;;;;;2.15;1.67;;;;;;;14.07;100.00;97858.94;6740638;21;20341;-80
2024/04/14 05:58:08;;;;;;;2.72;1.90;;;;;;;14.14;100.00;97864.00;6747722;21;20335;-81
2024/04/14 06:00:36;;;;;;;1.85;1.50;;;;;;;14.21;100.00;97869.91;6753333;21;20381;-80
2024/04/14 06:03:02;;;;;;;2.30;1.77;;;;;;;14.27;100.00;97866.22;6750707;21;20390;-80
2024/04/14 06:05:28;;;;;;;1.60;1.35;;;;;;;14.32;100.00;97868.88;6758851;21;20326;-82
2024/04/14 06:07:54;;;;;;;2.47;1.60;;;;;;;14.40;100.00;97867.59;6757166;21;20363;-80
2024/04/14 06:10:21;;;;;;;3.10;1.50;;;;;;;14.47;100.00;97868.13;6757759;21;20334;-81
2024/04/14 06:12:47;;;;;;;2.70;1.73;;;;;;;14.53;100.00;97875.06;6757019;21;20322;-80
2024/04/14 06:15:16;;;;;;;2.25;1.65;;;;;;;14.58;100.00;97873.22;6747394;21;20378;-82
2024/04/14 06:17:42;;;;;;;1.65;1.33;;;;;;;14.67;100.00;97876.94;6750049;21;20322;-81
2024/04/14 06:20:09;;;;;;;2.30;1.60;;;;;;;14.76;100.00;97874.56;6749293;21;20708;-80
2024/04/14 06:22:36;;;;;;;2.00;1.50;;;;;;;14.83;100.00;97868.97;6744319;21;20816;-81
2024/04/14 06:25:02;;;;;;;2.65;1.60;;;;;;;14.90;100.00;97882.81;6744116;21;20323;-80
2024/04/14 06:27:28;;;;;;;2.63;1.60;;;;;;;14.96;100.00;97877.22;6746219;21;20396;-79
2024/04/14 06:29:55;;;;;;;1.58;1.35;;;;;;;15.02;100.00;97886.03;6744462;21;20366;-81
2024/04/14 06:32:23;;;;;;;1.85;1.75;;;;;;;15.07;100.00;97886.84;6745251;21;20326;-82
2024/04/14 06:34:49;;;;;;;2.10;1.50;;;;;;;15.13;100.00;97884.16;6747689;21;20378;-81
2024/04/14 06:37:15;;;;;;;1.80;1.48;;;;;;;15.18;100.00;97887.63;6746494;21;20323;-83
2024/04/14 06:39:42;;;;;;;2.47;1.60;;;;;;;15.27;100.00;97887.88;6748842;21;20416;-78
2024/04/14 06:42:08;;;;;;;3.25;1.48;;;;;;;15.32;100.00;97882.56;6746378;21;20417;-84
2024/04/14 06:44:34;;;;;;;2.67;1.75;;;;;;;15.40;100.00;97879.34;6748298;21;20388;-81
2024/04/14 06:47:00;;;;;;;1.95;1.45;;;;;;;15.50;100.00;97874.75;6750633;21;20326;-82
2024/04/14 06:49:29;;;;;;;2.05;1.40;;;;;;;15.62;100.00;97871.03;6745918;21;20326;-82
2024/04/14 06:51:57;;;;;;;3.72;1.90;;;;;;;15.89;100.00;97868.81;6745928;21;20322;-82
2024/04/14 06:54:23;;;;;;;3.83;1.60;;;;;;;16.06;100.00;97871.16;6742838;21;20318;-80
2024/04/14 06:56:49;;;;;;;1.88;1.40;;;;;;;16.31;100.00;97862.22;6743858;21;20338;-79
2024/04/14 06:59:15;;;;;;;4.70;1.40;;;;;;;16.66;100.00;97863.88;6743446;21;20359;-81
2024/04/14 07:01:41;;;;;;;3.28;1.60;;;;;;;16.77;100.00;97858.19;6743935;21;20779;-80
2024/04/14 07:04:07;;;;;;;3.23;1.50;;;;;;;16.85;100.00;97862.13;6742853;21;20319;-81
2024/04/14 07:06:36;;;;;;;2.92;2.05;;;;;;;16.91;100.00;97853.00;6743831;21;20334;-80
2024/04/14 07:09:02;;;;;;;3.25;1.80;;;;;;;17.02;100.00;97862.53;6745649;21;20450;-81
2024/04/14 07:11:29;;;;;;;3.22;1.35;;;;;;;17.13;100.00;97864.06;6747670;21;20330;-83
2024/04/14 07:13:55;;;;;;;1.60;1.20;;;;;;;17.20;100.00;97867.19;6748599;21;20370;-79
2024/04/14 07:16:22;;;;;;;2.65;1.15;;;;;;;17.26;100.00;97868.75;6745775;21;20444;-82
2024/04/14 07:18:48;;;;;;;1.25;1.10;;;;;;;17.36;100.00;97868.66;6746643;21;20333;-82
2024/04/14 07:21:14;;;;;;;1.48;1.10;;;;;;;17.45;100.00;97868.81;6745389;21;20418;-79
2024/04/14 07:23:43;;;;;;;1.80;1.25;;;;;;;17.54;100.00;97861.75;6746338;21;20366;-80
2024/04/14 07:26:09;;;;;;;2.83;1.25;;;;;;;17.70;100.00;97870.47;6745665;21;20363;-81
2024/04/14 07:28:37;;;;;;;3.55;1.50;;;;;;;17.83;100.00;97871.66;6746190;21;20330;-81
2024/04/14 07:31:03;;;;;;;1.83;1.20;;;;;;;17.94;100.00;97875.81;6746992;21;20388;-81
2024/04/14 07:33:30;;;;;;;2.45;1.20;;;;;;;18.03;100.00;97869.53;6748016;21;20323;-81
2024/04/14 07:35:56;;;;;;;1.67;1.27;;;;;;;18.21;100.00;97870.63;6745673;21;20354;-80
2024/04/14 07:38:22;;;;;;;1.83;1.50;;;;;;;18.32;100.00;97863.28;6748210;21;20335;-81
2024/04/14 07:40:51;;;;;;;1.67;1.20;;;;;;;18.40;100.00;97876.81;6744020;21;20326;-83
2024/04/14 07:43:17;;;;;;;2.38;1.02;;;;;;;18.50;100.00;97865.94;6743830;21;20327;-79
2024/04/14 07:45:43;;;;;;;1.92;1.17;;;;;;;18.51;100.00;97864.84;6743692;21;20386;-80
2024/04/14 07:48:09;;;;;;;1.95;1.02;;;;;;;18.64;100.00;97863.38;6742855;21;20743;-81
2024/04/14 07:50:36;;;;;;;1.43;1.10;;;;;;;18.74;100.00;97860.53;6743106;21;20338;-80
2024/04/14 07:53:02;;;;;;;2.20;1.17;;;;;;;18.83;100.00;97861.47;6743764;21;20440;-80
2024/04/14 07:55:28;;;;;;;2.35;1.27;;;;;;;18.97;100.00;97860.72;6743458;21;20322;-81
2024/04/14 07:57:57;;;;;;;2.85;1.45;;;;;;;19.21;100.00;97864.06;6742301;21;20338;-81
2024/04/14 08:00:24;;;;;;;2.30;1.50;;;;;;;19.19;100.00;97860.88;6743558;21;20874;-80
2024/04/14 08:02:50;;;;;;;2.83;1.40;;;;;;;19.31;100.00;97859.31;6743998;21;20359;-80
2024/04/14 08:05:16;;;;;;;2.22;1.35;;;;;;;19.60;100.00;97856.41;6742331;21;20869;-79
2024/04/14 08:07:43;;;;;;;3.15;1.40;;;;;;;19.57;100.00;97853.50;6742569;21;20350;-79
2024/04/14 08:10:09;;;;;;;2.10;1.20;;;;;;;19.60;100.00;97856.41;6741396;21;20330;-78
2024/04/14 08:12:36;;;;;;;2.33;1.00;;;;;;;19.67;100.00;97856.81;6741399;21;20861;-78
2024/04/14 08:15:06;;;;;;;4.68;1.50;;;;;;;19.94;100.00;97861.38;6741746;21;20416;-78
2024/04/14 08:17:32;;;;;;;2.70;1.35;;;;;;;20.02;100.00;97854.50;6737617;21;20439;-79
2024/04/14 08:19:58;;;;;;;3.00;1.45;;;;;;;19.94;100.00;97855.19;6741910;21;20380;-80
2024/04/14 08:22:24;;;;;;;3.67;1.70;;;;;;;19.96;100.00;97856.50;6740625;21;20342;-78
2024/04/14 08:24:50;;;;;;;2.58;1.48;;;;;;;20.06;100.00;97850.13;6740141;21;20783;-78
2024/04/14 08:27:16;;;;;;;3.25;1.20;;;;;;;20.05;100.00;97857.38;6744038;21;20636;-79
2024/04/14 08:29:43;;;;;;;2.70;1.40;;;;;;;20.18;100.00;97855.75;6745504;21;20357;-84
2024/04/14 08:32:11;;;;;;;2.85;1.40;;;;;;;20.25;100.00;97856.16;6747780;21;20342;-84
2024/04/14 08:34:38;;;;;;;2.40;1.40;;;;;;;20.30;100.00;97856.03;6751074;21;20393;-83
2024/04/14 08:37:04;;;;;;;3.45;1.17;;;;;;;20.47;100.00;97853.53;6749714;21;20382;-82
2024/04/14 08:39:30;;;;;;;2.17;1.27;;;;;;;20.62;100.00;97859.66;6749783;21;20354;-80
2024/04/14 08:41:59;;;;;;;4.33;1.90;;;;;;;20.88;100.00;97847.22;6745390;21;20333;-78
2024/04/14 08:44:25;;;;;;;3.88;1.55;;;;;;;21.09;100.00;97852.88;6743309;21;20343;-81
2024/04/14 08:46:53;;;;;;;4.57;1.92;;;;;;;21.06;100.00;97850.78;6744089;21;20378;-79
2024/04/14 08:49:23;;;;;;;2.75;1.60;;;;;;;21.26;100.00;97853.03;6743248;21;20363;-81
2024/04/14 08:51:51;;;;;;;6.10;1.70;;;;;;;21.27;100.00;97857.31;6743933;21;20348;-83
2024/04/14 08:54:17;;;;;;;2.45;1.58;;;;;;;21.59;100.00;97851.59;6744350;21;20678;-83
2024/04/14 08:56:44;;;;;;;5.57;1.73;;;;;;;21.39;100.00;97856.72;6747555;21;20823;-82
2024/04/14 08:59:11;;;;;;;4.73;1.57;;;;;;;21.61;100.00;97853.97;6755425;21;20363;-85
2024/04/14 09:01:38;;;;;;;3.70;1.50;;;;;;;21.55;100.00;97858.72;6753806;21;20393;-85
2024/04/14 09:04:05;;;;;;;2.57;1.60;;;;;;;21.79;100.00;97852.16;6750531;21;20398;-83
2024/04/14 09:06:34;;;;;;;3.33;1.50;;;;;;;22.02;100.00;97844.78;6750995;21;20357;-83
2024/04/14 09:09:01;;;;;;;3.45;1.33;;;;;;;22.22;100.00;97853.09;6742833;21;20334;-81
2024/04/14 09:11:27;;;;;;;4.75;1.38;;;;;;;22.49;100.00;97848.50;6744581;21;20362;-81
2024/04/14 09:13:53;;;;;;;2.00;1.20;;;;;;;22.84;100.00;97844.72;6745261;21;20643;-81
2024/04/14 09:16:19;;;;;;;2.53;1.23;;;;;;;23.30;100.00;97843.22;6743766;21;20771;-81
2024/04/14 09:18:45;;;;;;;2.83;1.30;;;;;;;23.67;100.00;97856.00;6747187;21;20339;-81
2024/04/14 09:21:12;;;;;;;1.48;0.90;;;;;;;23.96;100.00;97841.69;6744070;21;20318;-79
2024/04/14 09:23:40;;;;;;;2.13;1.23;;;;;;;24.28;100.00;97834.84;6740718;21;20323;-79
2024/04/14 09:26:07;;;;;;;2.80;1.00;;;;;;;24.60;100.00;97842.22;6744297;21;20433;-81
2024/04/14 09:28:33;;;;;;;3.90;1.27;;;;;;;24.91;100.00;97836.41;6747758;21;20368;-79
2024/04/14 09:31:00;;;;;;;1.70;1.10;;;;;;;25.18;100.00;97832.34;6749749;21;20640;-81
2024/04/14 09:33:26;;;;;;;1.98;1.20;;;;;;;25.34;100.00;97832.44;6750451;21;20339;-78
2024/04/14 09:35:53;;;;;;;1.50;0.90;;;;;;;25.51;100.00;97837.69;6749426;21;20836;-79
2024/04/14 09:38:19;;;;;;;1.35;1.08;;;;;;;25.72;100.00;97832.97;6752531;21;20452;-79
2024/04/14 09:40:49;;;;;;;2.33;1.10;;;;;;;26.26;100.00;97829.25;6755450;21;20326;-75
2024/04/14 09:43:18;;;;;;;1.60;1.43;;;;;;;26.22;100.00;97837.25;6749916;21;20354;-79
2024/04/14 09:45:45;;;;;;;2.15;1.30;;;;;;;26.37;100.00;97841.22;6749197;21;20412;-79
2024/04/14 09:48:13;;;;;;;3.80;1.30;;;;;;;26.35;100.00;97833.41;6745247;21;20371;-79
2024/04/14 09:50:42;;;;;;;2.50;1.30;;;;;;;26.52;100.00;97835.06;6743031;21;20355;-77
2024/04/14 09:53:09;;;;;;;1.80;1.10;;;;;;;26.66;100.00;97834.69;6740294;21;20346;-78
2024/04/14 09:55:35;;;;;;;2.97;1.40;;;;;;;26.77;100.00;97833.03;6740460;21;20375;-79
2024/04/14 09:58:04;;;;;;;1.50;1.20;;;;;;;26.80;100.00;97833.16;6742293;21;20769;-76
2024/04/14 10:00:32;;;;;;;3.85;1.60;;;;;;;26.76;100.00;97831.50;6738588;21;20353;-77
2024/04/14 10:03:02;;;;;;;2.78;1.13;;;;;;;26.85;100.00;97827.47;6739696;21;20444;-77
2024/04/14 10:05:29;;;;;;;2.40;1.30;;;;;;;27.04;100.00;97831.50;6739685;21;20314;-78
2024/04/14 10:07:56;;;;;;;3.58;1.27;;;;;;;27.24;100.00;97825.81;6740002;21;20326;-78
2024/04/14 10:10:23;;;;;;;2.10;1.20;;;;;;;27.35;100.00;97826.13;6740402;21;20334;-77
2024/04/14 10:12:52;;;;;;;2.63;1.50;;;;;;;27.14;100.00;97826.31;6737607;21;20427;-78
2024/04/14 10:15:24;;;;;;;4.43;1.60;;;;;;;27.15;100.00;97818.97;6739914;21;20330;-77
2024/04/14 10:18:08;;;;;;;3.47;1.38;;;;;;;27.11;100.00;97818.88;6694611;21;20331;-79
2024/04/14 10:20:42;;;;;;;3.23;1.43;;;;;;;27.16;100.00;97807.75;6743277;21;20319;-78
2024/04/14 10:23:08;;;;;;;2.15;1.20;;;;;;;27.30;100.00;97807.31;6742694;21;20710;-79
2024/04/14 10:25:45;;;;;;;2.90;1.20;;;;;;;27.54;100.00;97806.41;6744355;21;20424;-79
2024/04/14 10:28:14;;;;;;;3.03;1.20;;;;;;;27.80;100.00;97806.66;6743377;21;20530;-78
2024/04/14 10:30:43;;;;;;;2.17;1.30;;;;;;;28.21;100.00;97810.72;6741814;21;20720;-79
2024/04/14 10:33:18;;;;;;;2.30;1.40;;;;;;;28.34;100.00;97795.81;6743734;21;20335;-79
2024/04/14 10:35:44;;;;;;;3.42;1.35;;;;;;;28.48;100.00;97795.34;6749432;21;20311;-81
2024/04/14 10:38:19;;;;;;;2.35;1.17;;;;;;;28.81;100.00;97797.56;6751353;21;20322;-79
2024/04/14 10:40:46;;;;;;;1.80;1.23;;;;;;;29.18;100.00;97781.50;6750845;21;20367;-80
2024/04/14 10:43:14;;;;;;;1.73;1.20;;;;;;;29.74;100.00;97783.63;6747061;21;20323;-80
2024/04/14 10:45:43;;;;;;;1.60;1.10;;;;;;;30.19;100.00;97780.00;6744972;21;20326;-80
2024/04/14 10:48:09;;;;;;;1.88;1.20;;;;;;;30.46;100.00;97786.19;6748528;21;20771;-81
2024/04/14 10:50:38;;;;;;;3.08;1.50;;;;;;;30.66;100.00;97784.94;6745746;21;20386;-80
2024/04/14 10:53:04;;;;;;;2.75;1.77;;;;;;;30.73;100.00;97777.59;6746764;21;20455;-78
2024/04/14 10:55:30;;;;;;;3.73;1.33;;;;;;;30.83;100.00;97772.59;6743604;21;20326;-79
2024/04/14 10:57:57;;;;;;;2.55;1.40;;;;;;;30.94;100.00;97770.78;6746161;21;20315;-78
2024/04/14 11:00:24;;;;;;;2.10;1.30;;;;;;;30.97;100.00;97770.81;6746422;21;20838;-77
2024/04/14 11:02:52;;;;;;;1.70;1.10;;;;;;;31.05;100.00;97766.97;6749366;21;20330;-78
2024/04/14 11:05:21;;;;;;;1.80;1.20;;;;;;;31.11;100.00;97760.03;6744835;21;20356;-79
2024/04/14 11:07:48;;;;;;;3.43;1.60;;;;;;;31.03;100.00;97760.31;6741502;21;20362;-77
2024/04/14 11:10:16;;;;;;;3.05;1.30;;;;;;;31.07;100.00;97766.63;6691042;21;20326;-78
2024/04/14 11:12:43;;;;;;;1.70;1.40;;;;;;;31.23;100.00;97763.66;6746855;21;20363;-79
2024/04/14 11:15:10;;;;;;;3.90;1.70;;;;;;;31.54;100.00;97752.19;6745392;21;20366;-78
2024/04/14 11:17:36;;;;;;;3.05;1.30;;;;;;;31.66;100.00;97753.84;6744323;21;20334;-78
2024/04/14 11:20:06;;;;;;;3.15;1.80;;;;;;;32.10;98.74;97745.53;6743155;21;20359;-79
2024/04/14 11:22:34;;;;;;;1.70;1.30;;;;;;;31.96;99.48;97743.47;6743639;21;20367;-79
2024/04/14 11:25:01;;;;;;;3.55;1.48;;;;;;;31.99;98.07;97747.41;6744268;21;20889;-79